createdAt,value
2023-05-12T00:01:21.840Z,9.36
2023-05-12T00:04:08.930Z,9.02
2023-05-12T00:06:56.259Z,9.35
2023-05-12T00:09:43.293Z,9.21
2023-05-12T00:12:30.230Z,9.34
2023-05-12T00:15:17.257Z,9.33
2023-05-12T00:18:04.367Z,9.32
2023-05-12T00:20:51.380Z,9.32
2023-05-12T00:23:38.424Z,9.26
2023-05-12T00:26:25.443Z,9.29
2023-05-12T00:29:12.722Z,9.28
2023-05-12T00:31:59.795Z,9.27
2023-05-12T00:34:47.647Z,9.26
2023-05-12T00:37:34.686Z,9.20
2023-05-12T00:40:21.957Z,9.21
2023-05-12T00:43:09.301Z,9.20
2023-05-12T00:45:56.777Z,8.93
2023-05-12T00:48:44.306Z,9.17
2023-05-12T00:51:32.369Z,9.15
2023-05-12T00:54:19.472Z,9.14
2023-05-12T00:57:06.426Z,9.13
2023-05-12T00:59:53.921Z,9.12
2023-05-12T01:02:41.871Z,8.83
2023-05-12T01:05:29.594Z,8.90
2023-05-12T01:08:19.845Z,9.07
2023-05-12T01:11:07.485Z,9.00
2023-05-12T01:13:54.686Z,9.12
2023-05-12T01:16:46.428Z,9.13
2023-05-12T01:19:53.009Z,9.14
2023-05-12T01:22:40.204Z,8.95
2023-05-12T01:25:30.577Z,9.14
2023-05-12T01:28:18.068Z,9.12
2023-05-12T01:31:05.877Z,8.75
2023-05-12T01:33:54.848Z,8.84
2023-05-12T01:36:41.977Z,9.13
2023-05-12T01:39:28.978Z,9.11
2023-05-12T01:42:16.634Z,8.95
2023-05-12T01:45:03.878Z,9.11
2023-05-12T01:47:51.579Z,9.10
2023-05-12T01:50:38.603Z,9.05
2023-05-12T01:53:30.775Z,9.07
2023-05-12T01:56:17.798Z,9.01
2023-05-12T01:59:05.544Z,8.75
2023-05-12T02:01:52.913Z,8.91
2023-05-12T02:04:47.117Z,9.01
2023-05-12T02:07:35.676Z,9.00
2023-05-12T02:10:22.895Z,9.00
2023-05-12T02:13:09.999Z,9.00
2023-05-12T02:15:57.328Z,8.98
2023-05-12T02:18:44.405Z,8.91
2023-05-12T02:21:31.881Z,8.89
2023-05-12T02:24:19.532Z,8.71
2023-05-12T02:27:06.758Z,8.99
2023-05-12T02:29:54.014Z,8.99
2023-05-12T02:32:42.039Z,9.01
2023-05-12T02:35:29.735Z,9.00
2023-05-12T02:38:16.648Z,9.05
2023-05-12T02:41:03.701Z,9.02
2023-05-12T02:43:50.587Z,8.94
2023-05-12T02:46:38.308Z,9.11
2023-05-12T02:49:25.491Z,8.91
2023-05-12T02:52:12.606Z,9.16
2023-05-12T02:54:59.634Z,9.18
2023-05-12T02:57:46.959Z,9.12
2023-05-12T03:00:34.423Z,9.14
2023-05-12T03:03:01.740Z,9.25
2023-05-12T03:05:48.689Z,9.26
2023-05-12T03:08:36.108Z,9.31
2023-05-12T03:11:23.371Z,9.31
2023-05-12T03:14:10.667Z,9.35
2023-05-12T03:16:57.967Z,9.11
2023-05-12T03:19:45.145Z,9.42
2023-05-12T03:22:34.035Z,9.46
2023-05-12T03:25:21.208Z,9.33
2023-05-12T03:28:08.100Z,9.51
2023-05-12T03:30:55.255Z,9.55
2023-05-12T03:33:43.556Z,9.59
2023-05-12T03:36:30.647Z,9.31
2023-05-12T03:39:17.602Z,9.65
2023-05-12T03:42:04.776Z,9.64
2023-05-12T03:44:51.767Z,9.71
2023-05-12T03:47:38.995Z,9.55
2023-05-12T03:50:27.642Z,9.73
2023-05-12T03:53:14.800Z,9.82
2023-05-12T03:56:01.926Z,9.86
2023-05-12T03:58:49.094Z,9.91
2023-05-12T04:01:37.362Z,9.95
2023-05-12T04:04:24.586Z,10.00
2023-05-12T04:07:11.547Z,10.03
2023-05-12T04:09:58.780Z,10.08
2023-05-12T04:12:45.704Z,10.13
2023-05-12T04:15:33.139Z,10.18
2023-05-12T04:18:20.251Z,10.19
2023-05-12T04:21:07.344Z,10.24
2023-05-12T04:23:54.411Z,10.37
2023-05-12T04:26:44.918Z,10.43
2023-05-12T04:29:32.270Z,10.49
2023-05-12T04:32:19.414Z,10.47
2023-05-12T04:35:06.573Z,10.60
2023-05-12T04:37:53.923Z,10.71
2023-05-12T04:40:42.167Z,10.78
2023-05-12T04:46:20.821Z,10.95
2023-05-12T04:49:08.976Z,10.92
2023-05-12T04:51:55.987Z,11.09
2023-05-12T04:54:43.039Z,11.05
2023-05-12T04:57:30.229Z,11.24
2023-05-12T05:00:17.592Z,11.32
2023-05-12T05:03:06.051Z,11.30
2023-05-12T05:05:53.571Z,11.31
2023-05-12T05:08:40.744Z,11.58
2023-05-12T05:11:27.846Z,11.54
2023-05-12T05:14:14.826Z,11.77
2023-05-12T05:17:02.144Z,11.71
2023-05-12T05:19:57.867Z,11.98
2023-05-12T05:22:48.997Z,12.03
2023-05-12T05:25:36.212Z,12.11
2023-05-12T05:28:23.246Z,12.26
2023-05-12T05:31:10.232Z,12.35
2023-05-12T05:33:57.720Z,12.35
2023-05-12T05:36:48.801Z,12.31
2023-05-12T05:39:36.258Z,12.62
2023-05-12T05:42:23.302Z,12.71
2023-05-12T05:45:10.490Z,12.81
2023-05-12T05:47:58.362Z,12.90
2023-05-12T05:50:46.229Z,13.00
2023-05-12T05:53:33.380Z,13.09
2023-05-12T05:56:20.648Z,13.19
2023-05-12T05:59:07.650Z,13.30
2023-05-12T06:01:55.002Z,13.38
2023-05-12T06:04:42.272Z,13.21
2023-05-12T06:07:29.393Z,13.51
2023-05-12T06:10:16.323Z,13.72
2023-05-12T06:13:03.554Z,13.84
2023-05-12T06:15:50.466Z,13.94
2023-05-12T06:18:38.095Z,14.05
2023-05-12T06:21:26.005Z,14.03
2023-05-12T06:24:12.996Z,14.15
2023-05-12T06:27:02.070Z,14.34
2023-05-12T06:29:49.231Z,14.42
2023-05-12T06:32:36.299Z,14.43
2023-05-12T06:35:23.541Z,14.64
2023-05-12T06:38:10.858Z,14.69
2023-05-12T06:40:57.859Z,14.82
2023-05-12T06:43:44.855Z,14.93
2023-05-12T06:46:33.863Z,15.03
2023-05-12T06:49:20.760Z,15.14
2023-05-12T06:52:07.804Z,15.25
2023-05-12T06:54:54.785Z,15.31
2023-05-12T06:57:41.761Z,15.45
2023-05-12T07:00:29.286Z,15.55
2023-05-12T07:03:16.421Z,15.63
2023-05-12T07:06:03.673Z,15.70
2023-05-12T07:08:50.808Z,15.84
2023-05-12T07:11:37.876Z,15.86
2023-05-12T07:14:25.163Z,16.02
2023-05-12T07:17:12.161Z,16.08
2023-05-12T07:19:59.134Z,15.86
2023-05-12T07:22:46.190Z,16.22
2023-05-12T07:25:33.346Z,16.27
2023-05-12T07:28:20.629Z,16.24
2023-05-12T07:31:07.675Z,16.40
2023-05-12T07:33:55.841Z,16.44
2023-05-12T07:36:23.223Z,16.50
2023-05-12T07:38:50.402Z,16.34
2023-05-12T07:41:37.406Z,16.57
2023-05-12T07:44:24.628Z,16.56
2023-05-12T07:47:11.563Z,16.67
2023-05-12T07:49:58.586Z,16.70
2023-05-12T07:52:45.515Z,16.73
2023-05-12T07:55:32.908Z,16.76
2023-05-12T07:58:20.240Z,16.53
2023-05-12T08:01:07.255Z,16.81
2023-05-12T08:03:55.306Z,16.84
2023-05-12T08:06:42.340Z,16.87
2023-05-12T08:09:29.307Z,16.91
2023-05-12T08:12:16.285Z,16.86
2023-05-12T08:15:03.388Z,16.88
2023-05-12T08:17:50.432Z,17.02
2023-05-12T08:20:37.402Z,17.05
2023-05-12T08:23:24.615Z,17.04
2023-05-12T08:26:11.810Z,17.14
2023-05-12T08:28:58.849Z,17.22
2023-05-12T08:31:45.757Z,17.27
2023-05-12T08:34:32.825Z,17.33
2023-05-12T08:37:20.565Z,17.35
2023-05-12T08:40:07.807Z,17.39
2023-05-12T08:43:03.591Z,17.44
2023-05-12T08:45:50.888Z,17.45
2023-05-12T08:48:39.989Z,17.47
2023-05-12T08:51:31.514Z,17.49
2023-05-12T08:54:19.069Z,17.51
2023-05-12T08:57:10.309Z,17.46
2023-05-12T08:59:59.760Z,17.55
2023-05-12T09:02:54.030Z,17.59
2023-05-12T09:05:42.823Z,17.63
2023-05-12T09:08:30.881Z,17.70
2023-05-12T09:11:18.691Z,17.74
2023-05-12T09:14:14.659Z,17.77
2023-05-12T09:17:04.788Z,17.62
2023-05-12T09:19:51.848Z,17.89
2023-05-12T09:22:39.336Z,17.96
2023-05-12T09:25:40.226Z,17.81
2023-05-12T09:28:27.337Z,18.04
2023-05-12T09:31:14.823Z,18.21
2023-05-12T09:34:01.909Z,18.33
2023-05-12T09:36:48.901Z,18.17
2023-05-12T09:39:37.511Z,18.59
2023-05-12T09:42:30.484Z,18.65
2023-05-12T09:45:23.377Z,18.83
2023-05-12T09:48:10.606Z,19.05
2023-05-12T09:51:09.184Z,19.22
2023-05-12T09:53:42.693Z,19.38
2023-05-12T09:56:10.866Z,19.55
2023-05-12T09:58:42.256Z,19.73
2023-05-12T10:01:21.942Z,19.78
2023-05-12T10:03:57.557Z,19.84
2023-05-12T10:06:30.398Z,20.08
2023-05-12T10:09:09.264Z,20.19
2023-05-12T10:11:36.948Z,20.34
2023-05-12T10:14:05.161Z,20.40
2023-05-12T10:16:33.708Z,20.60
2023-05-12T10:19:01.777Z,20.60
2023-05-12T10:21:29.035Z,20.82
2023-05-12T10:23:57.086Z,20.89
2023-05-12T10:26:24.690Z,21.04
2023-05-12T10:28:52.987Z,21.14
2023-05-12T10:31:22.397Z,21.21
2023-05-12T10:33:57.841Z,21.28
2023-05-12T10:36:25.157Z,21.34
2023-05-12T10:38:52.646Z,21.43
2023-05-12T10:41:34.228Z,21.55
2023-05-12T10:44:01.519Z,21.62
2023-05-12T10:46:28.707Z,21.76
2023-05-12T10:48:56.705Z,21.86
2023-05-12T10:51:51.313Z,21.99
2023-05-12T10:54:24.985Z,22.11
2023-05-12T10:56:53.566Z,22.22
2023-05-12T10:59:24.129Z,22.31
2023-05-12T11:02:06.979Z,22.38
2023-05-12T11:04:42.757Z,22.43
2023-05-12T11:07:12.214Z,22.50
2023-05-12T11:09:56.657Z,22.56
2023-05-12T11:12:27.342Z,22.50
2023-05-12T11:14:54.830Z,22.59
2023-05-12T11:17:21.932Z,22.57
2023-05-12T11:20:10.715Z,22.57
2023-05-12T11:23:00.817Z,22.60
2023-05-12T11:25:48.007Z,22.60
2023-05-12T11:28:35.043Z,22.61
2023-05-12T11:31:22.201Z,22.62
2023-05-12T11:34:12.981Z,22.62
2023-05-12T11:37:01.869Z,22.63
2023-05-12T11:39:52.582Z,22.65
2023-05-12T11:42:39.569Z,22.63
2023-05-12T11:45:27.040Z,22.63
2023-05-12T11:48:26.716Z,22.70
2023-05-12T11:51:13.776Z,22.75
2023-05-12T11:54:01.078Z,22.66
2023-05-12T11:56:48.319Z,22.62
2023-05-12T11:59:46.448Z,22.76
2023-05-12T12:02:40.468Z,22.68
2023-05-12T12:05:37.290Z,22.64
2023-05-12T12:08:28.342Z,22.64
2023-05-12T12:11:15.488Z,22.68
2023-05-12T12:14:08.743Z,22.71
2023-05-12T12:16:55.700Z,22.70
2023-05-12T12:19:42.821Z,22.88
2023-05-12T12:22:29.872Z,22.96
2023-05-12T12:25:17.131Z,23.09
2023-05-12T12:28:04.137Z,23.11
2023-05-12T12:30:51.430Z,22.89
2023-05-12T12:33:38.433Z,22.84
2023-05-12T12:36:25.802Z,22.80
2023-05-12T12:39:12.774Z,22.58
2023-05-12T12:42:00.036Z,22.41
2023-05-12T12:44:47.173Z,22.35
2023-05-12T12:47:34.171Z,22.34
2023-05-12T12:50:21.211Z,22.30
2023-05-12T12:53:08.236Z,22.20
2023-05-12T12:55:55.499Z,22.06
2023-05-12T12:58:42.500Z,21.98
2023-05-12T13:01:29.831Z,21.94
2023-05-12T13:04:17.116Z,21.86
2023-05-12T13:07:04.053Z,21.72
2023-05-12T13:09:51.008Z,21.74
2023-05-12T13:12:37.962Z,21.43
2023-05-12T13:15:25.871Z,21.61
2023-05-12T13:18:13.060Z,21.57
2023-05-12T13:21:00.443Z,21.43
2023-05-12T13:23:47.442Z,21.41
2023-05-12T13:26:34.543Z,21.33
2023-05-12T13:29:21.500Z,21.25
2023-05-12T13:32:08.631Z,21.18
2023-05-12T13:34:55.725Z,21.13
2023-05-12T13:37:42.834Z,21.05
2023-05-12T13:40:30.189Z,21.00
2023-05-12T13:43:17.165Z,20.97
2023-05-12T13:46:04.216Z,20.92
2023-05-12T13:48:51.329Z,20.86
2023-05-12T13:51:39.436Z,20.92
2023-05-12T13:54:26.544Z,20.86
2023-05-12T13:57:13.800Z,20.80
2023-05-12T14:00:00.832Z,20.92
2023-05-12T14:02:47.840Z,21.01
2023-05-12T14:05:35.267Z,20.99
2023-05-12T14:08:22.335Z,20.94
2023-05-12T14:11:09.376Z,20.99
2023-05-12T14:13:56.412Z,20.97
2023-05-12T14:16:43.637Z,20.96
2023-05-12T14:19:30.558Z,20.90
2023-05-12T14:22:25.332Z,20.97
2023-05-12T14:25:13.584Z,20.99
2023-05-12T14:28:00.626Z,21.01
2023-05-12T14:30:47.677Z,21.02
2023-05-12T14:33:34.695Z,21.05
2023-05-12T14:36:21.778Z,21.08
2023-05-12T14:39:08.715Z,21.16
2023-05-12T14:41:55.718Z,21.19
2023-05-12T14:44:42.691Z,21.13
2023-05-12T14:47:29.804Z,21.27
2023-05-12T14:50:16.889Z,21.28
2023-05-12T14:53:03.874Z,21.26
2023-05-12T14:55:51.496Z,21.10
2023-05-12T14:58:41.329Z,21.09
2023-05-12T15:01:28.334Z,21.10
2023-05-12T15:04:15.591Z,21.06
2023-05-12T15:07:02.576Z,21.00
2023-05-12T15:09:49.509Z,20.95
2023-05-12T15:12:36.383Z,20.89
2023-05-12T15:15:23.498Z,20.82
2023-05-12T15:18:10.612Z,20.80
2023-05-12T15:20:58.085Z,20.71
2023-05-12T15:23:45.003Z,20.64
2023-05-12T15:26:34.159Z,20.60
2023-05-12T15:29:22.859Z,20.59
2023-05-12T15:32:09.961Z,20.57
2023-05-12T15:34:57.048Z,20.58
2023-05-12T15:37:44.272Z,20.55
2023-05-12T15:40:31.544Z,20.43
2023-05-12T15:43:18.554Z,20.38
2023-05-12T15:46:05.533Z,20.42
2023-05-12T15:48:52.576Z,20.23
2023-05-12T15:51:39.568Z,20.33
2023-05-12T15:54:26.650Z,20.24
2023-05-12T15:57:13.592Z,20.23
2023-05-12T16:00:00.594Z,19.84
2023-05-12T16:02:47.957Z,20.13
2023-05-12T16:05:35.091Z,20.06
2023-05-12T16:08:22.208Z,19.98
2023-05-12T16:11:09.174Z,19.91
2023-05-12T16:13:56.327Z,19.83
2023-05-12T16:16:43.293Z,19.75
2023-05-12T16:19:30.518Z,19.71
2023-05-12T16:22:17.525Z,19.52
2023-05-12T16:25:04.527Z,19.64
2023-05-12T16:27:51.767Z,19.60
2023-05-12T16:30:38.786Z,19.58
2023-05-12T16:33:25.686Z,19.54
2023-05-12T16:36:12.905Z,19.36
2023-05-12T16:38:59.860Z,19.43
2023-05-12T16:41:46.982Z,19.35
2023-05-12T16:44:34.254Z,19.33
2023-05-12T16:47:21.257Z,19.24
2023-05-12T16:50:12.385Z,19.12
2023-05-12T16:52:59.485Z,19.10
2023-05-12T16:55:46.445Z,19.02
2023-05-12T16:58:33.486Z,18.89
2023-05-12T17:01:21.250Z,18.87
2023-05-12T17:04:08.588Z,18.77
2023-05-12T17:06:55.728Z,18.44
2023-05-12T17:09:42.752Z,18.66
2023-05-12T17:12:29.790Z,18.59
2023-05-12T17:15:16.782Z,18.46
2023-05-12T17:18:03.884Z,18.49
2023-05-12T17:20:51.332Z,18.44
2023-05-12T17:23:38.380Z,18.36
2023-05-12T17:26:25.358Z,18.29
2023-05-12T17:29:12.426Z,18.08
2023-05-12T17:31:59.455Z,18.09
2023-05-12T17:34:46.536Z,18.05
2023-05-12T17:37:33.534Z,18.19
2023-05-12T17:40:20.779Z,18.19
2023-05-12T17:43:08.141Z,18.37
2023-05-12T17:45:55.284Z,18.44
2023-05-12T17:48:45.233Z,18.48
2023-05-12T17:51:32.346Z,18.44
2023-05-12T17:54:19.507Z,18.36
2023-05-12T17:57:07.318Z,17.99
2023-05-12T17:59:54.471Z,18.13
2023-05-12T18:02:41.567Z,18.11
2023-05-12T18:05:29.048Z,17.90
2023-05-12T18:08:16.137Z,17.98
2023-05-12T18:11:03.508Z,17.88
2023-05-12T18:13:50.447Z,17.76
2023-05-12T18:16:37.599Z,17.54
2023-05-12T18:19:24.580Z,17.17
2023-05-12T18:22:14.630Z,17.18
2023-05-12T18:25:01.697Z,17.25
2023-05-12T18:27:48.758Z,17.20
2023-05-12T18:30:36.119Z,17.13
2023-05-12T18:33:23.058Z,17.09
2023-05-12T18:36:10.090Z,17.01
2023-05-12T18:38:56.964Z,16.88
2023-05-12T18:41:43.878Z,16.79
2023-05-12T18:44:30.798Z,16.74
2023-05-12T18:47:17.795Z,16.64
2023-05-12T18:50:04.674Z,16.54
2023-05-12T18:52:51.885Z,16.45
2023-05-12T18:55:38.834Z,16.20
2023-05-12T18:58:25.960Z,16.30
2023-05-12T19:01:13.388Z,16.09
2023-05-12T19:04:00.346Z,16.19
2023-05-12T19:06:47.488Z,15.83
2023-05-12T19:09:34.713Z,15.95
2023-05-12T19:12:22.132Z,15.98
2023-05-12T19:15:09.322Z,15.59
2023-05-12T19:17:56.393Z,15.85
2023-05-12T19:20:43.579Z,15.76
2023-05-12T19:23:30.509Z,15.63
2023-05-12T19:26:18.299Z,15.58
2023-05-12T19:29:05.254Z,15.48
2023-05-12T19:31:52.328Z,15.42
2023-05-12T19:34:39.479Z,15.34
2023-05-12T19:37:26.505Z,15.26
2023-05-12T19:40:13.672Z,15.19
2023-05-12T19:43:00.974Z,15.12
2023-05-12T19:45:48.932Z,15.01
2023-05-12T19:48:35.998Z,14.92
2023-05-12T19:51:22.999Z,14.87
2023-05-12T19:54:10.080Z,14.81
2023-05-12T19:56:57.146Z,14.71
2023-05-12T19:59:44.252Z,14.63
2023-05-12T20:02:34.081Z,14.49
2023-05-12T20:05:21.565Z,14.52
2023-05-12T20:08:08.908Z,14.37
